RYR201M EGBB-EIKN
Flight info
| Callsign | RYR201M |
|---|---|
| Flight time | 0h 54m |
| Altitude | 24000 |
| Route | LUVUM DCT NANTI Y53 EKLAD/N0421F340 UY53 WAL L10 PENIL M144 BAGSO DCT SUROX DCT EDONO EDONO1B |
| Aircraft | B738/M-SDE2E3FGHIRWXY/LB1 |
Departure
| Time | 2026-05-04 19:52 |
|---|---|
| Airport | Birmingham Airport (EGBB) |
Arrival
| Time | 2026-05-04 20:46 |
|---|---|
| Airport | Ireland West Airport Knock (EIKN) |
| Time | Latitude | Longitude | Altitude | Speed | Heading |
|---|---|---|---|---|---|
| 2026-05-04 18:44 | 52.45518 | -1.73654 | 331 ft | 0 kts | 326° |
| 2026-05-04 19:38 | 52.45510 | -1.73646 | 328 ft | 4 kts | 322° |
| 2026-05-04 19:38 | 52.45491 | -1.73615 | 328 ft | 4 kts | 301° |
| 2026-05-04 19:38 | 52.45484 | -1.73577 | 326 ft | 4 kts | 259° |
| 2026-05-04 19:39 | 52.45489 | -1.73554 | 329 ft | 1 kts | 236° |
| 2026-05-04 19:39 | 52.45491 | -1.73551 | 329 ft | 0 kts | 236° |
| 2026-05-04 19:41 | 52.45490 | -1.73553 | 329 ft | 1 kts | 236° |
| 2026-05-04 19:41 | 52.45476 | -1.73587 | 329 ft | 7 kts | 236° |
| 2026-05-04 19:42 | 52.45435 | -1.73686 | 331 ft | 14 kts | 236° |
| 2026-05-04 19:42 | 52.45374 | -1.73833 | 331 ft | 16 kts | 236° |
| 2026-05-04 19:42 | 52.45323 | -1.73957 | 329 ft | 11 kts | 237° |
| 2026-05-04 19:42 | 52.45320 | -1.74075 | 330 ft | 11 kts | 295° |
| 2026-05-04 19:43 | 52.45353 | -1.74187 | 330 ft | 11 kts | 295° |
| 2026-05-04 19:43 | 52.45385 | -1.74296 | 329 ft | 10 kts | 296° |
| 2026-05-04 19:43 | 52.45419 | -1.74403 | 331 ft | 12 kts | 297° |
| 2026-05-04 19:43 | 52.45471 | -1.74554 | 325 ft | 19 kts | 308° |
| 2026-05-04 19:44 | 52.45583 | -1.74700 | 325 ft | 21 kts | 327° |
| 2026-05-04 19:44 | 52.45705 | -1.74833 | 325 ft | 21 kts | 326° |
| 2026-05-04 19:44 | 52.45827 | -1.74965 | 323 ft | 21 kts | 326° |
| 2026-05-04 19:44 | 52.45949 | -1.75101 | 321 ft | 22 kts | 325° |
| 2026-05-04 19:45 | 52.46077 | -1.75250 | 317 ft | 21 kts | 324° |
| 2026-05-04 19:45 | 52.46210 | -1.75397 | 312 ft | 24 kts | 326° |
| 2026-05-04 19:45 | 52.46344 | -1.75547 | 311 ft | 22 kts | 325° |
| 2026-05-04 19:45 | 52.46457 | -1.75674 | 316 ft | 19 kts | 325° |
| 2026-05-04 19:46 | 52.46562 | -1.75791 | 322 ft | 15 kts | 325° |
| 2026-05-04 19:46 | 52.46623 | -1.75866 | 322 ft | 10 kts | 309° |
| 2026-05-04 19:46 | 52.46621 | -1.75941 | 325 ft | 3 kts | 239° |
| 2026-05-04 19:46 | 52.46619 | -1.75947 | 326 ft | 0 kts | 238° |
| 2026-05-04 19:50 | 52.46618 | -1.75950 | 326 ft | 1 kts | 238° |
| 2026-05-04 19:50 | 52.46603 | -1.75991 | 327 ft | 7 kts | 239° |
| 2026-05-04 19:50 | 52.46569 | -1.76072 | 327 ft | 9 kts | 220° |
| 2026-05-04 19:51 | 52.46512 | -1.76058 | 327 ft | 10 kts | 147° |
| 2026-05-04 19:51 | 52.46349 | -1.75878 | 320 ft | 62 kts | 145° |
| 2026-05-04 19:51 | 52.45789 | -1.75251 | 327 ft | 129 kts | 145° |
| 2026-05-04 19:51 | 52.44920 | -1.74283 | 546 ft | 162 kts | 144° |
| 2026-05-04 19:52 | 52.44000 | -1.73286 | 1390 ft | 157 kts | 145° |
| 2026-05-04 19:52 | 52.43042 | -1.72227 | 1869 ft | 177 kts | 144° |
| 2026-05-04 19:52 | 52.41996 | -1.71067 | 2571 ft | 186 kts | 145° |
| 2026-05-04 19:52 | 52.40929 | -1.69831 | 3379 ft | 190 kts | 135° |
| 2026-05-04 19:53 | 52.40312 | -1.67940 | 4042 ft | 200 kts | 94° |
| 2026-05-04 19:53 | 52.40490 | -1.65610 | 4318 ft | 220 kts | 74° |
| 2026-05-04 19:53 | 52.40953 | -1.63118 | 4798 ft | 230 kts | 59° |
| 2026-05-04 19:53 | 52.42059 | -1.61255 | 5422 ft | 234 kts | 27° |
| 2026-05-04 19:54 | 52.43637 | -1.60260 | 5729 ft | 259 kts | 14° |
| 2026-05-04 19:54 | 52.45430 | -1.59558 | 6380 ft | 269 kts | 4° |
| 2026-05-04 19:54 | 52.47341 | -1.59648 | 7161 ft | 273 kts | 354° |
| 2026-05-04 19:54 | 52.49220 | -1.59883 | 7976 ft | 276 kts | 355° |
| 2026-05-04 19:55 | 52.51149 | -1.60173 | 8765 ft | 281 kts | 347° |
| 2026-05-04 19:55 | 52.53016 | -1.61293 | 9588 ft | 284 kts | 335° |
| 2026-05-04 19:55 | 52.54804 | -1.62630 | 10344 ft | 289 kts | 334° |
| 2026-05-04 19:55 | 52.56641 | -1.63999 | 11112 ft | 292 kts | 335° |
| 2026-05-04 19:56 | 52.58506 | -1.65365 | 11918 ft | 295 kts | 335° |
| 2026-05-04 19:56 | 52.64310 | -1.69556 | 13254 ft | 341 kts | 335° |
| 2026-05-04 19:57 | 52.66503 | -1.71141 | 13984 ft | 346 kts | 335° |
| 2026-05-04 19:57 | 52.68719 | -1.72749 | 14764 ft | 349 kts | 335° |
| 2026-05-04 19:57 | 52.70929 | -1.74453 | 15550 ft | 352 kts | 328° |
| 2026-05-04 19:57 | 52.72780 | -1.77088 | 16296 ft | 354 kts | 310° |
| 2026-05-04 19:58 | 52.74402 | -1.80157 | 17069 ft | 357 kts | 309° |
| 2026-05-04 19:58 | 52.76017 | -1.83306 | 17809 ft | 362 kts | 309° |
| 2026-05-04 19:58 | 52.77651 | -1.86507 | 18530 ft | 366 kts | 309° |
| 2026-05-04 19:58 | 52.79301 | -1.89731 | 19187 ft | 370 kts | 309° |
| 2026-05-04 19:59 | 52.80977 | -1.92987 | 19871 ft | 373 kts | 308° |
| 2026-05-04 19:59 | 52.82666 | -1.96257 | 20527 ft | 376 kts | 308° |
| 2026-05-04 19:59 | 52.84377 | -1.99562 | 21173 ft | 380 kts | 308° |
| 2026-05-04 19:59 | 52.86104 | -2.02897 | 21802 ft | 384 kts | 308° |
| 2026-05-04 20:00 | 52.87851 | -2.06270 | 22417 ft | 388 kts | 308° |
| 2026-05-04 20:00 | 52.89612 | -2.09675 | 23026 ft | 391 kts | 308° |
| 2026-05-04 20:00 | 52.91392 | -2.13120 | 23604 ft | 396 kts | 308° |
| 2026-05-04 20:00 | 52.93187 | -2.16597 | 24091 ft | 400 kts | 309° |
| 2026-05-04 20:01 | 52.95007 | -2.20128 | 24550 ft | 404 kts | 309° |
| 2026-05-04 20:01 | 52.96841 | -2.23693 | 24997 ft | 408 kts | 310° |
| 2026-05-04 20:01 | 52.98673 | -2.27255 | 25408 ft | 413 kts | 310° |
| 2026-05-04 20:01 | 53.00543 | -2.30901 | 25852 ft | 417 kts | 310° |
| 2026-05-04 20:02 | 53.02434 | -2.34590 | 26338 ft | 420 kts | 311° |
| 2026-05-04 20:02 | 53.04153 | -2.37950 | 26776 ft | 422 kts | 311° |
| 2026-05-04 20:02 | 53.06062 | -2.41687 | 27213 ft | 426 kts | 311° |
| 2026-05-04 20:02 | 53.07984 | -2.45455 | 27631 ft | 429 kts | 311° |
| 2026-05-04 20:03 | 53.09412 | -2.48258 | 27942 ft | 432 kts | 312° |
| 2026-05-04 20:03 | 53.11359 | -2.52084 | 28365 ft | 435 kts | 312° |
| 2026-05-04 20:03 | 53.13314 | -2.55932 | 28861 ft | 436 kts | 312° |
| 2026-05-04 20:03 | 53.15231 | -2.59835 | 29464 ft | 434 kts | 310° |
| 2026-05-04 20:04 | 53.17066 | -2.63821 | 30092 ft | 433 kts | 309° |
| 2026-05-04 20:04 | 53.18655 | -2.67379 | 30535 ft | 432 kts | 309° |
| 2026-05-04 20:04 | 53.20435 | -2.71396 | 31034 ft | 430 kts | 309° |
| 2026-05-04 20:04 | 53.22211 | -2.75386 | 31559 ft | 427 kts | 309° |
| 2026-05-04 20:05 | 53.23983 | -2.79342 | 32067 ft | 425 kts | 309° |
| 2026-05-04 20:05 | 53.25754 | -2.83290 | 32550 ft | 423 kts | 309° |
| 2026-05-04 20:05 | 53.27514 | -2.87213 | 33027 ft | 422 kts | 309° |
| 2026-05-04 20:05 | 53.29268 | -2.91123 | 33497 ft | 420 kts | 309° |
| 2026-05-04 20:06 | 53.31017 | -2.95029 | 33973 ft | 418 kts | 309° |
| 2026-05-04 20:06 | 53.34532 | -3.02899 | 34082 ft | 423 kts | 309° |
| 2026-05-04 20:07 | 53.38021 | -3.10741 | 34064 ft | 416 kts | 309° |
| 2026-05-04 20:07 | 53.41437 | -3.18556 | 34082 ft | 416 kts | 308° |
| 2026-05-04 20:08 | 53.44789 | -3.26473 | 34080 ft | 417 kts | 307° |
| 2026-05-04 20:08 | 53.48148 | -3.34428 | 34077 ft | 418 kts | 307° |
| 2026-05-04 20:09 | 53.51510 | -3.42385 | 34076 ft | 418 kts | 307° |
| 2026-05-04 20:09 | 53.54870 | -3.50355 | 34077 ft | 417 kts | 307° |
| 2026-05-04 20:10 | 53.58219 | -3.58321 | 34071 ft | 416 kts | 307° |
| 2026-05-04 20:10 | 53.61069 | -3.66770 | 34075 ft | 418 kts | 291° |
| 2026-05-04 20:11 | 53.62143 | -3.76373 | 34089 ft | 419 kts | 275° |
| 2026-05-04 20:11 | 53.62461 | -3.86120 | 34074 ft | 419 kts | 275° |
| 2026-05-04 20:12 | 53.62852 | -3.95895 | 34078 ft | 418 kts | 275° |
| 2026-05-04 20:12 | 53.63245 | -4.05664 | 34089 ft | 418 kts | 275° |
| 2026-05-04 20:13 | 53.63619 | -4.15431 | 34081 ft | 418 kts | 275° |
| 2026-05-04 20:13 | 53.63984 | -4.25210 | 34083 ft | 418 kts | 275° |
| 2026-05-04 20:14 | 53.64341 | -4.34992 | 34086 ft | 418 kts | 275° |
| 2026-05-04 20:14 | 53.64686 | -4.44777 | 34086 ft | 418 kts | 275° |
| 2026-05-04 20:15 | 53.65024 | -4.54563 | 34081 ft | 418 kts | 275° |
| 2026-05-04 20:15 | 53.65356 | -4.64350 | 34086 ft | 418 kts | 275° |
| 2026-05-04 20:16 | 53.65682 | -4.74150 | 34087 ft | 418 kts | 275° |
| 2026-05-04 20:16 | 53.65999 | -4.83931 | 34090 ft | 417 kts | 275° |
| 2026-05-04 20:17 | 53.66320 | -4.93692 | 34087 ft | 417 kts | 275° |
| 2026-05-04 20:17 | 53.66639 | -5.03368 | 34081 ft | 414 kts | 275° |
| 2026-05-04 20:18 | 53.66947 | -5.12989 | 34084 ft | 408 kts | 274° |
| 2026-05-04 20:18 | 53.67234 | -5.22549 | 34100 ft | 409 kts | 274° |
| 2026-05-04 20:19 | 53.67502 | -5.32016 | 34074 ft | 392 kts | 274° |
| 2026-05-04 20:19 | 53.67629 | -5.36530 | 34075 ft | 379 kts | 274° |
| 2026-05-04 20:19 | 53.67751 | -5.40896 | 34064 ft | 367 kts | 274° |
| 2026-05-04 20:19 | 53.67867 | -5.45152 | 33861 ft | 360 kts | 274° |
| 2026-05-04 20:20 | 53.68060 | -5.49339 | 33485 ft | 357 kts | 281° |
| 2026-05-04 20:20 | 53.68656 | -5.53458 | 32593 ft | 367 kts | 290° |
| 2026-05-04 20:20 | 53.69541 | -5.57635 | 31494 ft | 386 kts | 292° |
| 2026-05-04 20:20 | 53.70501 | -5.61893 | 30976 ft | 387 kts | 292° |
| 2026-05-04 20:21 | 53.71464 | -5.66127 | 30532 ft | 386 kts | 292° |
| 2026-05-04 20:21 | 53.72096 | -5.68928 | 30291 ft | 384 kts | 292° |
| 2026-05-04 20:21 | 53.73960 | -5.77313 | 29468 ft | 378 kts | 291° |
| 2026-05-04 20:22 | 53.74865 | -5.81450 | 29076 ft | 374 kts | 291° |
| 2026-05-04 20:22 | 53.75757 | -5.85550 | 28709 ft | 370 kts | 291° |
| 2026-05-04 20:22 | 53.76635 | -5.89606 | 28334 ft | 366 kts | 291° |
| 2026-05-04 20:22 | 53.77505 | -5.93636 | 27937 ft | 363 kts | 291° |
| 2026-05-04 20:23 | 53.78363 | -5.97616 | 27591 ft | 359 kts | 291° |
| 2026-05-04 20:23 | 53.79214 | -6.01575 | 27212 ft | 357 kts | 291° |
| 2026-05-04 20:23 | 53.80055 | -6.05499 | 26842 ft | 354 kts | 291° |
| 2026-05-04 20:23 | 53.80893 | -6.09409 | 26488 ft | 351 kts | 291° |
| 2026-05-04 20:24 | 53.81719 | -6.13278 | 26134 ft | 349 kts | 291° |
| 2026-05-04 20:24 | 53.82542 | -6.17134 | 25766 ft | 346 kts | 291° |
| 2026-05-04 20:24 | 53.83356 | -6.20954 | 25430 ft | 344 kts | 290° |
| 2026-05-04 20:24 | 53.84165 | -6.24763 | 25079 ft | 342 kts | 290° |
| 2026-05-04 20:25 | 53.84968 | -6.28548 | 24724 ft | 341 kts | 290° |
| 2026-05-04 20:25 | 53.85765 | -6.32312 | 24384 ft | 339 kts | 290° |
| 2026-05-04 20:25 | 53.86559 | -6.36069 | 24042 ft | 338 kts | 290° |
| 2026-05-04 20:25 | 53.87347 | -6.39808 | 23699 ft | 337 kts | 290° |
| 2026-05-04 20:26 | 53.88133 | -6.43538 | 23295 ft | 335 kts | 290° |
| 2026-05-04 20:26 | 53.88913 | -6.47251 | 22913 ft | 333 kts | 290° |
| 2026-05-04 20:26 | 53.89687 | -6.50943 | 22561 ft | 331 kts | 290° |
| 2026-05-04 20:26 | 53.90454 | -6.54604 | 22219 ft | 328 kts | 290° |
| 2026-05-04 20:27 | 53.91214 | -6.58239 | 21876 ft | 326 kts | 290° |
| 2026-05-04 20:27 | 53.91967 | -6.61850 | 21524 ft | 324 kts | 290° |
| 2026-05-04 20:27 | 53.92715 | -6.65443 | 21209 ft | 322 kts | 290° |
| 2026-05-04 20:27 | 53.93456 | -6.69009 | 20874 ft | 320 kts | 290° |
| 2026-05-04 20:28 | 53.94193 | -6.72560 | 20547 ft | 318 kts | 290° |
| 2026-05-04 20:28 | 53.94923 | -6.76084 | 20223 ft | 316 kts | 290° |
| 2026-05-04 20:28 | 53.95650 | -6.79598 | 19895 ft | 314 kts | 290° |
| 2026-05-04 20:28 | 53.96361 | -6.83042 | 19575 ft | 313 kts | 290° |
| 2026-05-04 20:29 | 53.97078 | -6.86519 | 19255 ft | 311 kts | 290° |
| 2026-05-04 20:29 | 53.97791 | -6.89980 | 18936 ft | 310 kts | 290° |
| 2026-05-04 20:29 | 53.98499 | -6.93432 | 18622 ft | 309 kts | 290° |
| 2026-05-04 20:29 | 53.99205 | -6.96875 | 18283 ft | 308 kts | 289° |
| 2026-05-04 20:30 | 53.99700 | -7.00400 | 17929 ft | 307 kts | 276° |
| 2026-05-04 20:30 | 53.99749 | -7.03996 | 17657 ft | 303 kts | 270° |
| 2026-05-04 20:30 | 53.99718 | -7.07568 | 17332 ft | 301 kts | 270° |
| 2026-05-04 20:30 | 53.99675 | -7.11114 | 17022 ft | 299 kts | 269° |
| 2026-05-04 20:31 | 53.99635 | -7.14640 | 16702 ft | 297 kts | 270° |
| 2026-05-04 20:31 | 53.99598 | -7.18139 | 16391 ft | 296 kts | 270° |
| 2026-05-04 20:31 | 53.99566 | -7.21624 | 16089 ft | 294 kts | 270° |
| 2026-05-04 20:31 | 53.99535 | -7.25085 | 15775 ft | 292 kts | 270° |
| 2026-05-04 20:32 | 53.99506 | -7.28525 | 15470 ft | 290 kts | 270° |
| 2026-05-04 20:32 | 53.99477 | -7.31948 | 15170 ft | 289 kts | 270° |
| 2026-05-04 20:32 | 53.99448 | -7.35350 | 14871 ft | 288 kts | 270° |
| 2026-05-04 20:32 | 53.99418 | -7.38744 | 14566 ft | 287 kts | 270° |
| 2026-05-04 20:33 | 53.99388 | -7.42132 | 14263 ft | 286 kts | 270° |
| 2026-05-04 20:33 | 53.99357 | -7.45502 | 13961 ft | 285 kts | 270° |
| 2026-05-04 20:33 | 53.99326 | -7.48858 | 13623 ft | 284 kts | 270° |
| 2026-05-04 20:33 | 53.99293 | -7.52206 | 13300 ft | 282 kts | 270° |
| 2026-05-04 20:34 | 53.99261 | -7.55487 | 12996 ft | 280 kts | 270° |
| 2026-05-04 20:34 | 53.99227 | -7.58833 | 12669 ft | 279 kts | 270° |
| 2026-05-04 20:34 | 53.99194 | -7.62088 | 12319 ft | 279 kts | 270° |
| 2026-05-04 20:34 | 53.99158 | -7.65379 | 12009 ft | 278 kts | 270° |
| 2026-05-04 20:35 | 53.99122 | -7.68651 | 11703 ft | 277 kts | 270° |
| 2026-05-04 20:35 | 53.99156 | -7.71909 | 11398 ft | 274 kts | 277° |
| 2026-05-04 20:35 | 53.99453 | -7.75098 | 11126 ft | 272 kts | 281° |
| 2026-05-04 20:35 | 53.99811 | -7.78245 | 10830 ft | 270 kts | 282° |
| 2026-05-04 20:36 | 54.00158 | -7.81377 | 10539 ft | 269 kts | 281° |
| 2026-05-04 20:36 | 54.00486 | -7.84504 | 10248 ft | 268 kts | 281° |
| 2026-05-04 20:36 | 54.00799 | -7.87599 | 10087 ft | 262 kts | 281° |
| 2026-05-04 20:36 | 54.01100 | -7.90622 | 9845 ft | 259 kts | 280° |
| 2026-05-04 20:37 | 54.01318 | -7.93646 | 9529 ft | 258 kts | 268° |
| 2026-05-04 20:37 | 54.01032 | -7.96643 | 9299 ft | 255 kts | 260° |
| 2026-05-04 20:37 | 54.00672 | -7.99596 | 9009 ft | 255 kts | 260° |
| 2026-05-04 20:37 | 54.00314 | -8.02542 | 8726 ft | 254 kts | 260° |
| 2026-05-04 20:38 | 53.99963 | -8.05471 | 8452 ft | 252 kts | 260° |
| 2026-05-04 20:38 | 53.99617 | -8.08393 | 8176 ft | 251 kts | 260° |
| 2026-05-04 20:38 | 53.99276 | -8.11298 | 7901 ft | 250 kts | 260° |
| 2026-05-04 20:38 | 53.98937 | -8.14194 | 7633 ft | 249 kts | 260° |
| 2026-05-04 20:39 | 53.98598 | -8.17081 | 7352 ft | 249 kts | 260° |
| 2026-05-04 20:39 | 53.98260 | -8.19955 | 7089 ft | 248 kts | 260° |
| 2026-05-04 20:39 | 53.97925 | -8.22834 | 6803 ft | 250 kts | 261° |
| 2026-05-04 20:39 | 53.97585 | -8.25771 | 6526 ft | 256 kts | 260° |
| 2026-05-04 20:40 | 53.97256 | -8.28761 | 6210 ft | 258 kts | 263° |
| 2026-05-04 20:40 | 53.96976 | -8.31772 | 5891 ft | 258 kts | 262° |
| 2026-05-04 20:40 | 53.96660 | -8.34724 | 5585 ft | 257 kts | 261° |
| 2026-05-04 20:40 | 53.96304 | -8.37731 | 5294 ft | 256 kts | 260° |
| 2026-05-04 20:41 | 53.95998 | -8.40249 | 5045 ft | 255 kts | 260° |
| 2026-05-04 20:41 | 53.95639 | -8.43197 | 4738 ft | 254 kts | 260° |
| 2026-05-04 20:41 | 53.95286 | -8.46103 | 4470 ft | 247 kts | 260° |
| 2026-05-04 20:41 | 53.94948 | -8.48901 | 4154 ft | 236 kts | 260° |
| 2026-05-04 20:42 | 53.94632 | -8.51522 | 3874 ft | 223 kts | 260° |
| 2026-05-04 20:42 | 53.94332 | -8.54017 | 3629 ft | 207 kts | 261° |
| 2026-05-04 20:42 | 53.94059 | -8.56298 | 3403 ft | 189 kts | 261° |
| 2026-05-04 20:42 | 53.93807 | -8.58400 | 3274 ft | 174 kts | 261° |
| 2026-05-04 20:43 | 53.93566 | -8.60426 | 3082 ft | 176 kts | 262° |
| 2026-05-04 20:43 | 53.93327 | -8.62428 | 2877 ft | 171 kts | 262° |
| 2026-05-04 20:43 | 53.93094 | -8.64384 | 2625 ft | 167 kts | 262° |
| 2026-05-04 20:43 | 53.92870 | -8.66263 | 2437 ft | 159 kts | 262° |
| 2026-05-04 20:44 | 53.92652 | -8.68109 | 2196 ft | 159 kts | 263° |
| 2026-05-04 20:44 | 53.92433 | -8.69951 | 1968 ft | 158 kts | 262° |
| 2026-05-04 20:44 | 53.92219 | -8.71764 | 1755 ft | 156 kts | 262° |
| 2026-05-04 20:44 | 53.92002 | -8.73599 | 1528 ft | 159 kts | 262° |
| 2026-05-04 20:45 | 53.91781 | -8.75418 | 1375 ft | 155 kts | 261° |
| 2026-05-04 20:45 | 53.91561 | -8.77180 | 1106 ft | 150 kts | 261° |
| 2026-05-04 20:45 | 53.91370 | -8.78873 | 853 ft | 145 kts | 262° |
| 2026-05-04 20:45 | 53.91181 | -8.80532 | 666 ft | 141 kts | 262° |
| 2026-05-04 20:46 | 53.91015 | -8.81963 | 647 ft | 96 kts | 259° |
| 2026-05-04 20:46 | 53.90930 | -8.82723 | 649 ft | 35 kts | 260° |
| 2026-05-04 20:46 | 53.90904 | -8.83005 | 646 ft | 11 kts | 266° |
| 2026-05-04 20:46 | 53.90886 | -8.83071 | 647 ft | 2 kts | 174° |
| 2026-05-04 20:47 | 53.90885 | -8.83049 | 648 ft | 5 kts | 82° |
| 2026-05-04 20:47 | 53.90899 | -8.82908 | 648 ft | 19 kts | 80° |
| 2026-05-04 20:47 | 53.90936 | -8.82624 | 649 ft | 28 kts | 77° |
| 2026-05-04 20:47 | 53.90980 | -8.82302 | 650 ft | 27 kts | 77° |
| 2026-05-04 20:48 | 53.91018 | -8.81999 | 649 ft | 25 kts | 78° |
| 2026-05-04 20:48 | 53.91046 | -8.81719 | 645 ft | 24 kts | 79° |
| 2026-05-04 20:48 | 53.91077 | -8.81454 | 645 ft | 23 kts | 78° |
| 2026-05-04 20:48 | 53.91108 | -8.81196 | 647 ft | 22 kts | 78° |
| 2026-05-04 20:49 | 53.91137 | -8.80948 | 649 ft | 21 kts | 78° |
| 2026-05-04 20:49 | 53.91210 | -8.80877 | 648 ft | 13 kts | 349° |
| 2026-05-04 20:49 | 53.91297 | -8.80906 | 647 ft | 11 kts | 349° |
| 2026-05-04 20:49 | 53.91334 | -8.80919 | 647 ft | 1 kts | 348° |
| 2026-05-04 20:50 | 53.91349 | -8.80930 | 647 ft | 3 kts | 317° |
| 2026-05-04 20:50 | 53.91347 | -8.80975 | 649 ft | 4 kts | 259° |
| 2026-05-04 20:50 | 53.91344 | -8.80998 | 649 ft | 0 kts | 258° |